Time;durP1;ratioP1;P1;durP2;ratioP2;P2;SDS_P1;SDS_P2;PMS_P1;PMS_P2;Temp;Humidity;BMP_temperature;BMP_pressure;BME280_temperature;BME280_humidity;BME280_pressure;Samples;Min_cycle;Max_cycle;Signal;HPM_P1;HPM_P2
2021/10/09 00:00:47;;;;;;;25.83;11.80;;;;;;;;;;4831585;29;20222;-90
2021/10/09 00:04:00;;;;;;;26.53;10.97;;;;;;;;;;4831915;29;20214;-91
2021/10/09 00:07:12;;;;;;;21.63;11.77;;;;;;;;;;4835211;29;20203;-90
2021/10/09 00:10:27;;;;;;;23.97;11.77;;;;;;;;;;4834563;29;20259;-91
2021/10/09 00:13:38;;;;;;;22.97;11.30;;;;;;;;;;4835394;29;20281;-92
2021/10/09 00:16:50;;;;;;;23.73;11.43;;;;;;;;;;4834912;29;20222;-90
2021/10/09 00:20:04;;;;;;;24.90;12.03;;;;;;;;;;4835832;29;20199;-91
2021/10/09 00:23:16;;;;;;;32.37;11.90;;;;;;;;;;4834548;29;20210;-90
2021/10/09 00:26:27;;;;;;;34.73;11.33;;;;;;;;;;4835117;29;20663;-90
2021/10/09 00:29:38;;;;;;;24.87;11.70;;;;;;;;;;4835238;29;20566;-91
2021/10/09 00:32:49;;;;;;;23.90;10.90;;;;;;;;;;4835610;29;20221;-91
2021/10/09 00:36:02;;;;;;;23.93;11.70;;;;;;;;;;4835014;29;20223;-92
2021/10/09 00:39:14;;;;;;;25.80;11.40;;;;;;;;;;4837144;29;20207;-90
2021/10/09 00:42:26;;;;;;;34.67;16.77;;;;;;;;;;4835473;29;20634;-91
2021/10/09 00:45:38;;;;;;;39.10;13.27;;;;;;;;;;4834334;29;20252;-91
2021/10/09 00:48:50;;;;;;;72.13;13.53;;;;;;;;;;4834034;29;20195;-89
2021/10/09 00:52:06;;;;;;;106.27;14.50;;;;;;;;;;4833714;29;20286;-91
2021/10/09 00:55:18;;;;;;;27.80;13.43;;;;;;;;;;4834307;29;20227;-90
2021/10/09 00:58:30;;;;;;;74.50;14.90;;;;;;;;;;4834508;29;20231;-91
2021/10/09 01:01:43;;;;;;;225.03;19.23;;;;;;;;;;4839166;29;20295;-90
2021/10/09 01:04:54;;;;;;;71.53;14.60;;;;;;;;;;4835120;29;20510;-90
2021/10/09 01:08:07;;;;;;;72.63;15.10;;;;;;;;;;4834474;29;20211;-90
2021/10/09 01:11:19;;;;;;;26.60;12.83;;;;;;;;;;4835740;29;20254;-91
2021/10/09 01:14:31;;;;;;;29.00;12.73;;;;;;;;;;4835755;29;20222;-91
2021/10/09 01:17:43;;;;;;;22.30;12.07;;;;;;;;;;4833347;29;20207;-90
2021/10/09 01:21:01;;;;;;;33.13;12.30;;;;;;;;;;4833156;29;20322;-89
2021/10/09 01:24:17;;;;;;;35.07;13.93;;;;;;;;;;4835367;29;20221;-91
2021/10/09 01:27:30;;;;;;;28.43;12.70;;;;;;;;;;4834396;29;20332;-90
2021/10/09 01:30:42;;;;;;;27.27;12.73;;;;;;;;;;4834127;29;20198;-92
2021/10/09 01:33:53;;;;;;;30.83;12.17;;;;;;;;;;4836238;29;20272;-90
2021/10/09 01:37:09;;;;;;;29.97;11.13;;;;;;;;;;4838656;29;20200;-89
2021/10/09 01:40:26;;;;;;;39.47;12.80;;;;;;;;;;4841223;29;20190;-91
2021/10/09 01:43:38;;;;;;;30.30;12.47;;;;;;;;;;4834282;29;20199;-91
2021/10/09 01:46:50;;;;;;;47.53;14.10;;;;;;;;;;4835046;29;20196;-91
2021/10/09 01:50:02;;;;;;;43.47;13.20;;;;;;;;;;4835231;29;20210;-90
2021/10/09 01:53:15;;;;;;;35.80;13.37;;;;;;;;;;4833466;29;20227;-91
2021/10/09 01:56:27;;;;;;;41.60;12.87;;;;;;;;;;4833166;29;20284;-89
2021/10/09 01:59:40;;;;;;;26.43;12.23;;;;;;;;;;4833956;29;20220;-90
2021/10/09 02:03:04;;;;;;;61.63;13.30;;;;;;;;;;4834790;29;20237;-89
2021/10/09 02:06:16;;;;;;;31.93;13.47;;;;;;;;;;4835276;29;20691;-89
2021/10/09 02:09:30;;;;;;;145.83;15.60;;;;;;;;;;4833805;29;20659;-90
2021/10/09 02:12:44;;;;;;;78.17;14.07;;;;;;;;;;4834117;29;20204;-90
2021/10/09 02:16:01;;;;;;;36.57;12.67;;;;;;;;;;4834605;29;20645;-89
2021/10/09 02:26:08;;;;;;;95.57;14.47;;;;;;;;;;4833495;29;20206;-90
2021/10/09 02:29:20;;;;;;;70.87;14.53;;;;;;;;;;4833284;29;20204;-90
2021/10/09 02:32:33;;;;;;;75.00;14.77;;;;;;;;;;4832930;29;20238;-91
2021/10/09 02:35:46;;;;;;;303.27;20.27;;;;;;;;;;4832101;29;20235;-92
2021/10/09 02:38:58;;;;;;;37.93;13.63;;;;;;;;;;4831780;29;20214;-88
2021/10/09 02:42:11;;;;;;;53.50;12.77;;;;;;;;;;4832987;29;20203;-91
2021/10/09 02:45:23;;;;;;;80.80;14.10;;;;;;;;;;4833541;29;20204;-91
2021/10/09 02:48:35;;;;;;;147.57;15.07;;;;;;;;;;4834051;29;20608;-91
2021/10/09 02:51:47;;;;;;;87.17;14.27;;;;;;;;;;4833134;29;20205;-90
2021/10/09 02:54:58;;;;;;;116.23;14.43;;;;;;;;;;4831697;29;20223;-91
2021/10/09 02:58:11;;;;;;;80.97;13.30;;;;;;;;;;4832752;29;20199;-91
2021/10/09 03:01:23;;;;;;;36.37;12.60;;;;;;;;;;4832423;29;20324;-92
2021/10/09 03:04:35;;;;;;;33.20;10.90;;;;;;;;;;4832047;29;20268;-90
2021/10/09 03:07:47;;;;;;;71.53;11.13;;;;;;;;;;4832109;29;20183;-90
2021/10/09 03:10:58;;;;;;;29.40;10.03;;;;;;;;;;4831300;29;20215;-90
2021/10/09 03:14:11;;;;;;;35.37;10.50;;;;;;;;;;4832447;29;20238;-91
2021/10/09 03:17:25;;;;;;;38.37;10.60;;;;;;;;;;4831955;29;20213;-88
2021/10/09 03:20:37;;;;;;;35.67;11.03;;;;;;;;;;4831119;29;20216;-92
2021/10/09 03:23:53;;;;;;;80.43;11.20;;;;;;;;;;4831044;29;20541;-90
2021/10/09 03:27:05;;;;;;;59.13;10.80;;;;;;;;;;4831364;29;20671;-92
2021/10/09 03:30:18;;;;;;;106.30;12.37;;;;;;;;;;4831710;29;20211;-90
2021/10/09 03:33:30;;;;;;;86.80;12.17;;;;;;;;;;4831075;29;20230;-91
2021/10/09 03:36:42;;;;;;;107.23;14.27;;;;;;;;;;4830924;29;20230;-91
2021/10/09 03:39:56;;;;;;;77.07;12.53;;;;;;;;;;4832128;29;20208;-90
2021/10/09 03:43:11;;;;;;;81.50;13.73;;;;;;;;;;4832227;29;20269;-91
2021/10/09 03:46:26;;;;;;;55.57;11.33;;;;;;;;;;4832203;29;20220;-90
2021/10/09 03:49:46;;;;;;;56.93;11.73;;;;;;;;;;4831753;29;20764;-89
2021/10/09 03:52:57;;;;;;;71.50;12.57;;;;;;;;;;4833308;29;20196;-92
2021/10/09 03:56:09;;;;;;;206.17;16.77;;;;;;;;;;4832095;29;20604;-92
2021/10/09 03:59:27;;;;;;;120.23;15.63;;;;;;;;;;4832697;29;20207;-90
2021/10/09 04:02:46;;;;;;;119.80;16.50;;;;;;;;;;4831278;29;20674;-90
2021/10/09 04:05:59;;;;;;;163.70;18.83;;;;;;;;;;4832246;29;20215;-90
2021/10/09 04:09:11;;;;;;;60.47;15.37;;;;;;;;;;4832192;29;20203;-89
2021/10/09 04:12:23;;;;;;;156.13;16.50;;;;;;;;;;4831317;29;20626;-91
2021/10/09 04:15:34;;;;;;;96.63;16.57;;;;;;;;;;4831868;29;20256;-90
2021/10/09 04:18:47;;;;;;;94.50;15.90;;;;;;;;;;4831311;29;20302;-89
2021/10/09 04:21:59;;;;;;;67.30;13.03;;;;;;;;;;4833379;29;20211;-91
2021/10/09 04:25:11;;;;;;;54.10;13.53;;;;;;;;;;4832182;29;20542;-91
2021/10/09 04:28:24;;;;;;;133.97;15.17;;;;;;;;;;4832146;29;20196;-91
2021/10/09 04:31:36;;;;;;;75.00;12.93;;;;;;;;;;4831606;29;20199;-90
2021/10/09 04:34:50;;;;;;;96.50;13.80;;;;;;;;;;4832880;29;20183;-91
2021/10/09 04:38:06;;;;;;;44.67;13.23;;;;;;;;;;4832033;29;20287;-91
2021/10/09 04:41:17;;;;;;;64.27;13.13;;;;;;;;;;4830788;29;20215;-89
2021/10/09 04:44:28;;;;;;;111.07;14.97;;;;;;;;;;4831065;29;20196;-91
2021/10/09 04:47:40;;;;;;;75.20;14.33;;;;;;;;;;4831210;29;20254;-90
2021/10/09 04:50:54;;;;;;;68.53;13.93;;;;;;;;;;4832133;29;20230;-90
2021/10/09 04:54:04;;;;;;;42.47;11.77;;;;;;;;;;4834507;29;20212;-90
2021/10/09 04:57:17;;;;;;;41.33;13.50;;;;;;;;;;4834375;29;20256;-90
2021/10/09 05:00:29;;;;;;;72.67;12.77;;;;;;;;;;4833453;29;20402;-90
2021/10/09 05:03:40;;;;;;;68.20;13.43;;;;;;;;;;4833796;29;20237;-90
2021/10/09 05:06:54;;;;;;;48.27;12.93;;;;;;;;;;4835363;29;20228;-90
2021/10/09 05:10:07;;;;;;;49.23;12.40;;;;;;;;;;4835939;29;20191;-88
2021/10/09 05:13:19;;;;;;;55.10;13.37;;;;;;;;;;4833843;29;20274;-90
2021/10/09 05:16:30;;;;;;;98.80;13.43;;;;;;;;;;4839543;29;20588;-91
2021/10/09 05:19:42;;;;;;;44.67;12.33;;;;;;;;;;4834589;29;20203;-90
2021/10/09 05:22:57;;;;;;;51.27;11.30;;;;;;;;;;4834472;29;20191;-89
2021/10/09 05:26:09;;;;;;;41.93;12.40;;;;;;;;;;4832908;29;20202;-90
2021/10/09 05:29:23;;;;;;;35.80;13.53;;;;;;;;;;4824644;29;20203;-91
2021/10/09 05:32:36;;;;;;;88.97;14.27;;;;;;;;;;4833619;29;20279;-90
2021/10/09 05:35:48;;;;;;;79.77;14.73;;;;;;;;;;4833746;29;20331;-91
2021/10/09 05:39:01;;;;;;;46.80;13.87;;;;;;;;;;4832533;29;20215;-90
2021/10/09 05:42:15;;;;;;;61.47;14.40;;;;;;;;;;4833642;29;20229;-92
2021/10/09 05:45:27;;;;;;;54.97;14.37;;;;;;;;;;4833685;29;20195;-91
2021/10/09 05:48:40;;;;;;;35.60;13.77;;;;;;;;;;4834721;29;20239;-89
2021/10/09 05:51:58;;;;;;;50.00;14.47;;;;;;;;;;4834513;29;20270;-91
2021/10/09 05:55:17;;;;;;;45.73;14.07;;;;;;;;;;4834702;29;20211;-90
2021/10/09 05:58:35;;;;;;;68.27;14.80;;;;;;;;;;4834838;29;20227;-90
2021/10/09 06:47:24;;;;;;;61.07;13.60;;;;;;;;;;4833954;29;20272;-91
2021/10/09 07:01:09;;;;;;;34.00;13.33;;;;;;;;;;4836527;29;20243;-90
2021/10/09 07:04:22;;;;;;;32.50;13.53;;;;;;;;;;4832889;29;20199;-90
2021/10/09 07:07:40;;;;;;;29.87;13.63;;;;;;;;;;4835446;29;20671;-92
2021/10/09 07:11:02;;;;;;;28.20;14.10;;;;;;;;;;4833924;29;20288;-90
2021/10/09 07:14:14;;;;;;;31.30;13.60;;;;;;;;;;4832568;29;20668;-91
2021/10/09 07:17:26;;;;;;;26.77;12.90;;;;;;;;;;4833280;29;20260;-91
2021/10/09 07:20:41;;;;;;;23.77;12.77;;;;;;;;;;4834723;29;20234;-89
2021/10/09 07:23:55;;;;;;;26.07;13.13;;;;;;;;;;4835203;29;20212;-90
2021/10/09 07:27:07;;;;;;;33.13;13.87;;;;;;;;;;4835341;29;20210;-90
2021/10/09 07:30:19;;;;;;;26.50;13.10;;;;;;;;;;4836249;29;20195;-91
2021/10/09 07:33:31;;;;;;;32.87;14.23;;;;;;;;;;4834898;29;20222;-90
2021/10/09 07:36:45;;;;;;;26.60;13.05;;;;;;;;;;4836978;29;20227;-91
2021/10/09 07:39:57;;;;;;;26.27;13.63;;;;;;;;;;4835319;29;20195;-92
2021/10/09 07:43:09;;;;;;;27.27;14.25;;;;;;;;;;4836878;29;20207;-90
2021/10/09 07:46:21;;;;;;;30.77;14.50;;;;;;;;;;4833998;29;20288;-89
2021/10/09 07:49:33;;;;;;;29.83;14.43;;;;;;;;;;4833674;29;20220;-91
2021/10/09 07:52:51;;;;;;;32.58;14.05;;;;;;;;;;4835828;29;20187;-90
2021/10/09 07:56:07;;;;;;;30.52;14.85;;;;;;;;;;4838085;29;20222;-92
2021/10/09 07:59:20;;;;;;;30.20;14.13;;;;;;;;;;4838542;29;20213;-91
2021/10/09 08:02:35;;;;;;;31.27;14.73;;;;;;;;;;4836289;29;20228;-92
2021/10/09 08:05:49;;;;;;;30.67;14.48;;;;;;;;;;4837213;29;20662;-90
2021/10/09 08:09:02;;;;;;;30.90;14.95;;;;;;;;;;4838294;29;20203;-92
2021/10/09 08:12:13;;;;;;;28.92;14.93;;;;;;;;;;4836101;29;20195;-92
2021/10/09 08:15:25;;;;;;;31.20;15.60;;;;;;;;;;4837110;29;20734;-92
2021/10/09 08:18:39;;;;;;;26.25;14.82;;;;;;;;;;4836581;29;20274;-92
2021/10/09 08:21:51;;;;;;;27.45;14.57;;;;;;;;;;4840205;29;20215;-92
2021/10/09 08:25:24;;;;;;;29.83;14.65;;;;;;;;;;4834189;29;20208;-92
2021/10/09 08:35:38;;;;;;;29.55;14.65;;;;;;;;;;4839154;29;20202;-90
2021/10/09 08:38:54;;;;;;;32.33;15.20;;;;;;;;;;4841105;29;20199;-90
2021/10/09 08:42:08;;;;;;;36.13;13.93;;;;;;;;;;4839177;29;20256;-91
2021/10/09 08:45:20;;;;;;;36.08;14.73;;;;;;;;;;4840906;29;20188;-89
2021/10/09 08:48:40;;;;;;;30.42;14.18;;;;;;;;;;4838599;29;20211;-91
2021/10/09 08:51:52;;;;;;;31.50;14.10;;;;;;;;;;4836549;29;20217;-90
2021/10/09 08:55:20;;;;;;;34.78;13.63;;;;;;;;;;4840449;29;20199;-91
2021/10/09 08:58:37;;;;;;;28.98;13.38;;;;;;;;;;4839378;29;20328;-90
2021/10/09 09:02:02;;;;;;;31.80;12.77;;;;;;;;;;4839083;29;20338;-92
2021/10/09 09:05:22;;;;;;;28.85;13.00;;;;;;;;;;4838525;29;20276;-90
2021/10/09 09:26:25;;;;;;;30.80;12.43;;;;;;;;;;4822840;29;20587;-90
2021/10/09 09:37:04;;;;;;;24.38;11.82;;;;;;;;;;4838555;29;20235;-90
2021/10/09 09:40:18;;;;;;;27.58;11.32;;;;;;;;;;4838701;29;20210;-89
2021/10/09 09:43:40;;;;;;;29.40;10.43;;;;;;;;;;4837556;29;20192;-92
2021/10/09 09:47:10;;;;;;;24.13;10.43;;;;;;;;;;4836196;29;20679;-91
2021/10/09 09:50:24;;;;;;;21.90;10.32;;;;;;;;;;4836003;29;20716;-90
2021/10/09 09:53:36;;;;;;;21.73;10.15;;;;;;;;;;4835345;29;20203;-91
2021/10/09 09:56:56;;;;;;;21.42;9.77;;;;;;;;;;4836806;29;20345;-90
2021/10/09 10:00:09;;;;;;;20.90;9.13;;;;;;;;;;4833614;29;20239;-91
2021/10/09 10:03:28;;;;;;;27.08;10.25;;;;;;;;;;4835740;29;20240;-90
2021/10/09 10:06:42;;;;;;;24.00;9.40;;;;;;;;;;4836800;29;20218;-89
2021/10/09 10:09:54;;;;;;;28.45;9.52;;;;;;;;;;4836884;29;20229;-90
2021/10/09 10:13:06;;;;;;;20.95;9.63;;;;;;;;;;4835580;29;20211;-89
2021/10/09 10:16:21;;;;;;;28.08;9.70;;;;;;;;;;4836378;29;20664;-90
2021/10/09 10:19:48;;;;;;;23.52;9.73;;;;;;;;;;4834864;29;20214;-91
2021/10/09 10:23:03;;;;;;;28.92;9.48;;;;;;;;;;4845457;29;20203;-90
2021/10/09 10:26:26;;;;;;;20.98;9.00;;;;;;;;;;4836823;29;20607;-89
2021/10/09 10:29:38;;;;;;;22.17;8.82;;;;;;;;;;4833718;29;20212;-89
2021/10/09 10:33:10;;;;;;;23.85;8.25;;;;;;;;;;4833472;29;20268;-90
2021/10/09 10:36:36;;;;;;;19.98;8.18;;;;;;;;;;4834861;29;20230;-89
2021/10/09 10:39:50;;;;;;;18.83;7.88;;;;;;;;;;4835344;29;20199;-91
2021/10/09 10:43:21;;;;;;;19.38;7.90;;;;;;;;;;4835097;29;20195;-91
2021/10/09 10:46:37;;;;;;;20.90;8.15;;;;;;;;;;4835050;29;20314;-91
2021/10/09 10:49:56;;;;;;;16.77;7.50;;;;;;;;;;4834482;29;20243;-90
2021/10/09 10:53:11;;;;;;;20.88;8.10;;;;;;;;;;4833837;29;20227;-91
2021/10/09 10:56:28;;;;;;;23.80;7.93;;;;;;;;;;4835092;29;20329;-91
2021/10/09 10:59:44;;;;;;;16.23;7.50;;;;;;;;;;4836219;29;20275;-91
2021/10/09 11:02:56;;;;;;;19.90;7.82;;;;;;;;;;4838091;29;20203;-90
2021/10/09 11:09:33;;;;;;;18.58;8.13;;;;;;;;;;4838533;29;20199;-91
2021/10/09 11:12:49;;;;;;;20.45;7.60;;;;;;;;;;4837091;29;20221;-91
2021/10/09 11:16:03;;;;;;;20.20;7.10;;;;;;;;;;4835223;29;20306;-90
2021/10/09 11:19:13;;;;;;;24.25;7.90;;;;;;;;;;4833148;29;20199;-90
2021/10/09 11:22:24;;;;;;;20.13;7.65;;;;;;;;;;4834358;29;20215;-90
2021/10/09 11:25:38;;;;;;;18.98;7.68;;;;;;;;;;4834836;29;20270;-91
2021/10/09 11:29:00;;;;;;;22.42;7.65;;;;;;;;;;4834790;29;20284;-90
2021/10/09 11:32:13;;;;;;;19.30;7.15;;;;;;;;;;4835218;29;20238;-91
2021/10/09 11:35:32;;;;;;;16.27;7.65;;;;;;;;;;4832527;29;20203;-91
2021/10/09 11:38:49;;;;;;;16.80;7.95;;;;;;;;;;4836520;29;20674;-92
2021/10/09 11:42:03;;;;;;;18.13;8.00;;;;;;;;;;4836740;29;20215;-90
2021/10/09 11:45:21;;;;;;;24.58;8.05;;;;;;;;;;4835423;29;20203;-90
2021/10/09 11:55:48;;;;;;;17.75;7.78;;;;;;;;;;4834742;29;20303;-89
2021/10/09 11:59:03;;;;;;;14.55;7.40;;;;;;;;;;4835120;29;20207;-91
2021/10/09 12:02:33;;;;;;;16.88;7.88;;;;;;;;;;4832059;29;20183;-90
2021/10/09 12:05:56;;;;;;;23.88;8.70;;;;;;;;;;4835559;29;20193;-91
2021/10/09 12:09:09;;;;;;;16.88;7.43;;;;;;;;;;4835609;29;20204;-90
2021/10/09 12:12:22;;;;;;;15.40;6.57;;;;;;;;;;4834537;29;20203;-90
2021/10/09 12:15:33;;;;;;;15.32;6.75;;;;;;;;;;4833156;29;20228;-91
2021/10/09 12:18:48;;;;;;;21.30;7.95;;;;;;;;;;4833408;29;20612;-91
2021/10/09 12:22:04;;;;;;;21.20;8.15;;;;;;;;;;4832997;29;20199;-90
2021/10/09 12:25:22;;;;;;;20.25;7.47;;;;;;;;;;4833701;29;20203;-90
2021/10/09 12:28:34;;;;;;;16.90;7.65;;;;;;;;;;4834123;29;20195;-90
2021/10/09 12:31:47;;;;;;;17.98;6.72;;;;;;;;;;4833718;29;20222;-91
2021/10/09 12:35:09;;;;;;;18.98;7.15;;;;;;;;;;4832935;29;20199;-92
2021/10/09 12:38:21;;;;;;;17.85;7.28;;;;;;;;;;4835458;29;20226;-90
2021/10/09 12:41:32;;;;;;;15.20;7.00;;;;;;;;;;4832587;29;20214;-90
2021/10/09 12:44:44;;;;;;;17.60;7.25;;;;;;;;;;4833527;29;20203;-90
2021/10/09 12:47:56;;;;;;;16.80;6.63;;;;;;;;;;4833609;29;20211;-90
2021/10/09 12:51:12;;;;;;;18.27;6.90;;;;;;;;;;4835163;29;20187;-91
2021/10/09 12:54:26;;;;;;;18.60;6.45;;;;;;;;;;4833870;29;20231;-90
2021/10/09 12:57:57;;;;;;;16.77;7.07;;;;;;;;;;4832940;29;20322;-91
2021/10/09 13:01:09;;;;;;;15.23;6.18;;;;;;;;;;4833870;29;20668;-92
2021/10/09 13:04:23;;;;;;;16.00;6.50;;;;;;;;;;4835161;29;20319;-91
2021/10/09 13:07:38;;;;;;;23.85;7.15;;;;;;;;;;4833910;29;20200;-89
2021/10/09 13:10:50;;;;;;;16.65;7.00;;;;;;;;;;4836474;29;20268;-91
2021/10/09 13:14:02;;;;;;;18.02;7.57;;;;;;;;;;4838698;29;20432;-90
2021/10/09 13:17:13;;;;;;;13.77;6.43;;;;;;;;;;4838315;29;20291;-90
2021/10/09 13:20:32;;;;;;;14.88;6.75;;;;;;;;;;4838717;29;20396;-90
2021/10/09 13:23:47;;;;;;;14.00;5.85;;;;;;;;;;4839203;29;20215;-90
2021/10/09 13:27:00;;;;;;;16.05;6.72;;;;;;;;;;4838901;29;20566;-91
2021/10/09 13:30:11;;;;;;;16.30;6.85;;;;;;;;;;4838030;29;20195;-92
2021/10/09 13:33:23;;;;;;;17.00;6.78;;;;;;;;;;4838391;29;20227;-91
2021/10/09 13:36:35;;;;;;;14.73;6.82;;;;;;;;;;4840753;29;20253;-91
2021/10/09 13:40:05;;;;;;;15.55;6.57;;;;;;;;;;4838582;29;20195;-91
2021/10/09 13:43:18;;;;;;;14.50;6.95;;;;;;;;;;4838905;29;20218;-91
2021/10/09 13:46:32;;;;;;;16.80;6.38;;;;;;;;;;4839738;29;20196;-91
2021/10/09 13:49:44;;;;;;;13.57;6.90;;;;;;;;;;4838255;29;20199;-91
2021/10/09 13:52:57;;;;;;;14.32;7.28;;;;;;;;;;4838560;29;20207;-91
2021/10/09 13:56:14;;;;;;;18.25;7.05;;;;;;;;;;4840435;29;20305;-90
2021/10/09 13:59:28;;;;;;;14.48;6.85;;;;;;;;;;4837232;29;20227;-91
2021/10/09 14:02:42;;;;;;;21.40;6.88;;;;;;;;;;4836676;29;20256;-91
2021/10/09 14:05:54;;;;;;;15.18;6.57;;;;;;;;;;4837568;29;20203;-91
2021/10/09 14:09:05;;;;;;;16.60;7.68;;;;;;;;;;4837133;29;20191;-90
2021/10/09 14:12:17;;;;;;;18.10;7.65;;;;;;;;;;4834910;29;20236;-90
2021/10/09 14:15:30;;;;;;;23.70;7.78;;;;;;;;;;4837363;29;20210;-92
2021/10/09 14:18:41;;;;;;;17.25;7.10;;;;;;;;;;4836482;29;20310;-91
2021/10/09 14:21:53;;;;;;;19.73;7.22;;;;;;;;;;4835068;29;20294;-91
2021/10/09 14:25:08;;;;;;;20.90;6.82;;;;;;;;;;4837145;29;20221;-91
2021/10/09 14:28:20;;;;;;;23.98;8.38;;;;;;;;;;4835809;29;20762;-89
2021/10/09 14:31:34;;;;;;;15.93;7.40;;;;;;;;;;4835542;29;20206;-90
2021/10/09 14:34:46;;;;;;;17.25;8.43;;;;;;;;;;4836071;29;20567;-91
2021/10/09 14:37:57;;;;;;;16.67;7.50;;;;;;;;;;4838366;29;20277;-91
2021/10/09 14:41:09;;;;;;;16.52;7.28;;;;;;;;;;4839837;29;20231;-90
2021/10/09 14:44:21;;;;;;;16.67;7.28;;;;;;;;;;4835679;29;20648;-90
2021/10/09 14:47:49;;;;;;;12.70;6.95;;;;;;;;;;4837236;29;20577;-90
2021/10/09 14:51:17;;;;;;;17.02;7.57;;;;;;;;;;4836826;29;20194;-90
2021/10/09 15:19:21;;;;;;;18.48;7.50;;;;;;;;;;4771732;29;20239;-90
2021/10/09 15:22:35;;;;;;;15.77;7.85;;;;;;;;;;4772598;29;20214;-89
2021/10/09 15:25:47;;;;;;;30.83;11.35;;;;;;;;;;4835741;29;20207;-91
2021/10/09 15:28:58;;;;;;;20.73;9.10;;;;;;;;;;4835141;29;20195;-90
2021/10/09 15:32:13;;;;;;;16.92;8.00;;;;;;;;;;4841914;29;20203;-90
2021/10/09 15:35:25;;;;;;;17.10;7.15;;;;;;;;;;4835322;29;20278;-91
2021/10/09 15:38:38;;;;;;;19.95;7.65;;;;;;;;;;4834912;29;20298;-89
2021/10/09 15:41:50;;;;;;;17.75;7.95;;;;;;;;;;4835604;29;20259;-90
2021/10/09 15:45:02;;;;;;;18.88;7.47;;;;;;;;;;4837817;29;20286;-91
2021/10/09 15:48:14;;;;;;;20.35;7.60;;;;;;;;;;4833226;29;20215;-91
2021/10/09 15:51:27;;;;;;;15.63;7.35;;;;;;;;;;4837337;29;20224;-90
2021/10/09 15:54:42;;;;;;;20.50;7.55;;;;;;;;;;4833732;29;20203;-90
2021/10/09 15:57:54;;;;;;;19.02;7.47;;;;;;;;;;4833134;29;20570;-90
2021/10/09 16:01:06;;;;;;;15.77;7.65;;;;;;;;;;4833698;29;20191;-92
2021/10/09 16:04:17;;;;;;;22.33;7.90;;;;;;;;;;4834244;29;20660;-89
2021/10/09 16:07:29;;;;;;;21.25;7.47;;;;;;;;;;4833378;29;20195;-90
2021/10/09 16:17:35;;;;;;;24.50;8.48;;;;;;;;;;4848203;29;20259;-90
2021/10/09 16:20:46;;;;;;;22.40;8.88;;;;;;;;;;4835822;29;20191;-91
2021/10/09 16:23:57;;;;;;;20.15;8.38;;;;;;;;;;4839035;29;20585;-90
2021/10/09 16:27:10;;;;;;;21.00;8.68;;;;;;;;;;4835557;29;20203;-90
2021/10/09 16:33:47;;;;;;;22.02;9.50;;;;;;;;;;4834537;29;20233;-90
2021/10/09 16:36:59;;;;;;;25.45;9.73;;;;;;;;;;4833635;29;20199;-90
2021/10/09 16:40:12;;;;;;;23.50;8.82;;;;;;;;;;4834298;29;20337;-91
2021/10/09 16:43:25;;;;;;;21.33;8.50;;;;;;;;;;4836588;29;20249;-92
2021/10/09 16:46:38;;;;;;;20.25;8.43;;;;;;;;;;4835744;29;20191;-92
2021/10/09 16:49:49;;;;;;;19.65;8.85;;;;;;;;;;4837417;29;20199;-90
2021/10/09 16:53:01;;;;;;;23.13;9.82;;;;;;;;;;4837788;29;20203;-91
2021/10/09 16:56:12;;;;;;;24.65;9.60;;;;;;;;;;4839624;29;20278;-91
2021/10/09 16:59:38;;;;;;;22.17;9.88;;;;;;;;;;4839077;29;20230;-92
2021/10/09 17:02:49;;;;;;;25.88;9.38;;;;;;;;;;4838444;29;20217;-90
2021/10/09 17:06:03;;;;;;;20.33;9.40;;;;;;;;;;4840300;29;20207;-90
2021/10/09 17:09:15;;;;;;;24.27;9.20;;;;;;;;;;4835552;29;20204;-91
2021/10/09 17:12:26;;;;;;;27.52;10.60;;;;;;;;;;4836297;29;20215;-92
2021/10/09 17:15:41;;;;;;;25.88;10.90;;;;;;;;;;4836839;29;20214;-91
2021/10/09 17:18:52;;;;;;;26.48;10.13;;;;;;;;;;4835375;29;20243;-90
2021/10/09 17:22:05;;;;;;;28.35;9.80;;;;;;;;;;4834913;29;20214;-89
2021/10/09 17:25:17;;;;;;;30.15;10.18;;;;;;;;;;4836351;29;20554;-90
2021/10/09 17:28:31;;;;;;;26.40;10.50;;;;;;;;;;4838659;29;20199;-92
2021/10/09 17:31:44;;;;;;;32.10;12.85;;;;;;;;;;4837815;29;20203;-91
2021/10/09 17:38:32;;;;;;;23.42;10.57;;;;;;;;;;4838893;29;20218;-91
2021/10/09 17:41:44;;;;;;;23.83;10.10;;;;;;;;;;4835674;29;20211;-91
2021/10/09 17:44:56;;;;;;;32.20;10.73;;;;;;;;;;4837806;29;20203;-89
2021/10/09 17:48:09;;;;;;;26.77;10.70;;;;;;;;;;4837424;29;20351;-90
2021/10/09 17:51:27;;;;;;;28.40;12.98;;;;;;;;;;4838655;29;20205;-91
2021/10/09 17:54:39;;;;;;;34.72;10.80;;;;;;;;;;4836917;29;20352;-91
2021/10/09 17:57:58;;;;;;;25.85;11.40;;;;;;;;;;4837346;29;20244;-91
2021/10/09 18:01:11;;;;;;;28.70;11.98;;;;;;;;;;4837526;29;20203;-90
2021/10/09 18:04:24;;;;;;;146.35;47.75;;;;;;;;;;4836061;29;20206;-91
2021/10/09 18:07:43;;;;;;;56.05;21.92;;;;;;;;;;4838375;29;20682;-91
2021/10/09 18:10:55;;;;;;;37.90;15.48;;;;;;;;;;4837734;29;20199;-92
2021/10/09 18:14:09;;;;;;;56.80;21.80;;;;;;;;;;4839426;29;20321;-91
2021/10/09 18:17:21;;;;;;;61.90;22.98;;;;;;;;;;4835338;29;20195;-91
2021/10/09 18:20:34;;;;;;;55.95;16.77;;;;;;;;;;4834959;29;20357;-91
2021/10/09 18:23:46;;;;;;;73.97;22.27;;;;;;;;;;4835342;29;20229;-92
2021/10/09 18:26:58;;;;;;;33.25;12.15;;;;;;;;;;4835772;29;20667;-90
2021/10/09 18:30:10;;;;;;;38.90;12.10;;;;;;;;;;4834799;29;20757;-93
2021/10/09 18:33:22;;;;;;;65.07;19.90;;;;;;;;;;4836218;29;20306;-91
2021/10/09 18:40:02;;;;;;;65.00;21.23;;;;;;;;;;4838301;29;20246;-90
2021/10/09 18:43:14;;;;;;;154.18;41.28;;;;;;;;;;4837793;29;20204;-90
2021/10/09 18:46:25;;;;;;;29.67;12.57;;;;;;;;;;4836965;29;20195;-91
2021/10/09 18:49:40;;;;;;;48.83;15.48;;;;;;;;;;4834353;29;20572;-90
2021/10/09 18:52:55;;;;;;;28.87;12.37;;;;;;;;;;4835924;29;20219;-90
2021/10/09 18:56:07;;;;;;;40.22;12.70;;;;;;;;;;4838248;29;20211;-92
2021/10/09 18:59:21;;;;;;;29.65;10.90;;;;;;;;;;4841764;29;20267;-91
2021/10/09 19:02:33;;;;;;;32.63;13.57;;;;;;;;;;4837984;29;20203;-90
2021/10/09 19:05:46;;;;;;;550.33;168.02;;;;;;;;;;4837646;29;20220;-90
2021/10/09 19:09:00;;;;;;;145.07;28.88;;;;;;;;;;4838156;29;20215;-91
2021/10/09 19:12:12;;;;;;;216.95;39.72;;;;;;;;;;4836734;29;20227;-91
2021/10/09 19:15:25;;;;;;;446.90;71.35;;;;;;;;;;4836843;29;20203;-91
2021/10/09 19:18:37;;;;;;;206.13;35.53;;;;;;;;;;4835288;29;20227;-89
2021/10/09 19:21:50;;;;;;;231.77;36.83;;;;;;;;;;4838420;29;20223;-90
2021/10/09 19:25:04;;;;;;;103.07;22.80;;;;;;;;;;4835323;29;20204;-91
2021/10/09 19:28:16;;;;;;;59.13;22.87;;;;;;;;;;4836574;29;20220;-91
2021/10/09 19:31:30;;;;;;;42.33;15.70;;;;;;;;;;4838486;29;20523;-91
2021/10/09 19:34:45;;;;;;;53.30;19.10;;;;;;;;;;4836637;29;20199;-91
2021/10/09 19:37:58;;;;;;;70.70;24.37;;;;;;;;;;4836413;29;20195;-92
2021/10/09 19:41:13;;;;;;;60.17;22.93;;;;;;;;;;4837199;29;20216;-90
2021/10/09 19:44:27;;;;;;;67.20;24.20;;;;;;;;;;4837652;29;20211;-91
2021/10/09 19:47:39;;;;;;;58.80;23.97;;;;;;;;;;4833647;29;20279;-91
2021/10/09 22:35:21;;;;;;;29.20;10.93;;;;;;;;;;4875037;29;20231;-90
2021/10/09 22:38:32;;;;;;;25.47;10.47;;;;;;;;;;4873405;29;20202;-90
2021/10/09 22:41:45;;;;;;;24.97;10.73;;;;;;;;;;4873168;29;20212;-90
2021/10/09 22:44:57;;;;;;;25.00;11.03;;;;;;;;;;4871291;29;20252;-91
2021/10/09 22:48:09;;;;;;;24.67;11.13;;;;;;;;;;4871582;29;20181;-90
2021/10/09 22:51:19;;;;;;;22.40;11.07;;;;;;;;;;4872589;29;20187;-89
2021/10/09 22:54:31;;;;;;;23.93;11.37;;;;;;;;;;4871554;29;20202;-90
2021/10/09 22:57:46;;;;;;;21.60;10.47;;;;;;;;;;4871330;29;20193;-90
2021/10/09 23:00:58;;;;;;;26.53;11.70;;;;;;;;;;4871587;29;20358;-90
2021/10/09 23:04:10;;;;;;;28.90;11.37;;;;;;;;;;4872090;29;20190;-91
2021/10/09 23:07:22;;;;;;;25.73;10.70;;;;;;;;;;4870489;29;20327;-89
2021/10/09 23:10:34;;;;;;;24.20;11.93;;;;;;;;;;4871721;29;20198;-89
2021/10/09 23:13:48;;;;;;;28.10;12.23;;;;;;;;;;4873409;29;20197;-89
2021/10/09 23:17:00;;;;;;;27.13;11.77;;;;;;;;;;4872133;29;20190;-90
2021/10/09 23:20:12;;;;;;;27.57;12.00;;;;;;;;;;4871145;29;20290;-89
2021/10/09 23:23:24;;;;;;;28.93;11.50;;;;;;;;;;4871762;29;20209;-90
2021/10/09 23:26:35;;;;;;;27.93;12.13;;;;;;;;;;4871481;29;20222;-91
2021/10/09 23:29:48;;;;;;;24.93;11.83;;;;;;;;;;4873071;29;20210;-92
2021/10/09 23:33:00;;;;;;;31.17;11.63;;;;;;;;;;4870912;29;20611;-90
2021/10/09 23:36:12;;;;;;;21.03;10.53;;;;;;;;;;4871047;29;20198;-91
2021/10/09 23:39:23;;;;;;;28.60;11.60;;;;;;;;;;4871220;29;20308;-90
2021/10/09 23:42:35;;;;;;;27.80;11.27;;;;;;;;;;4872218;29;20202;-90
2021/10/09 23:45:48;;;;;;;24.97;10.63;;;;;;;;;;4871474;29;20217;-90
2021/10/09 23:49:00;;;;;;;23.83;10.97;;;;;;;;;;4871083;29;20713;-92
2021/10/09 23:52:11;;;;;;;23.83;10.40;;;;;;;;;;4870282;29;20194;-91
2021/10/09 23:55:22;;;;;;;22.20;10.83;;;;;;;;;;4871418;29;20332;-89
2021/10/09 23:58:37;;;;;;;34.30;10.97;;;;;;;;;;4872353;29;20227;-91
